sensor_id;sensor_type;location;lat;lon;timestamp;temperature;humidity
6252;DHT22;3159;52.414;9.784;2022-07-29T00:00:11;18.40;99.90
6252;DHT22;3159;52.414;9.784;2022-07-29T00:02:38;18.30;99.90
6252;DHT22;3159;52.414;9.784;2022-07-29T00:05:05;18.30;99.90
6252;DHT22;3159;52.414;9.784;2022-07-29T00:07:34;18.30;99.90
6252;DHT22;3159;52.414;9.784;2022-07-29T00:10:03;18.40;99.90
6252;DHT22;3159;52.414;9.784;2022-07-29T00:12:30;18.40;99.90
6252;DHT22;3159;52.414;9.784;2022-07-29T00:14:57;18.30;99.90
6252;DHT22;3159;52.414;9.784;2022-07-29T00:17:24;18.40;99.90
6252;DHT22;3159;52.414;9.784;2022-07-29T00:19:52;18.40;99.90
6252;DHT22;3159;52.414;9.784;2022-07-29T00:22:21;18.40;99.90
6252;DHT22;3159;52.414;9.784;2022-07-29T00:24:49;18.50;99.90
6252;DHT22;3159;52.414;9.784;2022-07-29T00:27:16;18.40;99.90
6252;DHT22;3159;52.414;9.784;2022-07-29T00:29:43;18.40;99.90
6252;DHT22;3159;52.414;9.784;2022-07-29T00:32:10;18.50;99.90
6252;DHT22;3159;52.414;9.784;2022-07-29T00:34:37;18.40;99.90
6252;DHT22;3159;52.414;9.784;2022-07-29T00:37:22;18.30;99.90
6252;DHT22;3159;52.414;9.784;2022-07-29T00:39:50;18.10;99.90
6252;DHT22;3159;52.414;9.784;2022-07-29T00:42:17;18.20;99.90
6252;DHT22;3159;52.414;9.784;2022-07-29T00:44:44;18.10;99.90
6252;DHT22;3159;52.414;9.784;2022-07-29T00:47:11;17.90;99.90
6252;DHT22;3159;52.414;9.784;2022-07-29T00:49:39;17.90;99.90
6252;DHT22;3159;52.414;9.784;2022-07-29T00:52:07;17.80;99.90
6252;DHT22;3159;52.414;9.784;2022-07-29T00:54:34;17.90;99.90
6252;DHT22;3159;52.414;9.784;2022-07-29T00:57:03;17.90;99.90
6252;DHT22;3159;52.414;9.784;2022-07-29T00:59:30;17.80;99.90
6252;DHT22;3159;52.414;9.784;2022-07-29T01:01:57;17.90;99.90
6252;DHT22;3159;52.414;9.784;2022-07-29T01:04:24;17.90;99.90
6252;DHT22;3159;52.414;9.784;2022-07-29T01:06:54;17.90;99.90
6252;DHT22;3159;52.414;9.784;2022-07-29T01:09:21;17.90;99.90
6252;DHT22;3159;52.414;9.784;2022-07-29T01:11:48;17.90;99.90
6252;DHT22;3159;52.414;9.784;2022-07-29T01:14:17;17.90;99.90
6252;DHT22;3159;52.414;9.784;2022-07-29T01:16:50;17.90;99.90
6252;DHT22;3159;52.414;9.784;2022-07-29T01:19:34;17.80;99.90
6252;DHT22;3159;52.414;9.784;2022-07-29T01:22:19;17.80;99.90
6252;DHT22;3159;52.414;9.784;2022-07-29T01:25:19;17.90;99.90
6252;DHT22;3159;52.414;9.784;2022-07-29T01:28:06;17.80;99.90
6252;DHT22;3159;52.414;9.784;2022-07-29T01:30:38;17.70;99.90
6252;DHT22;3159;52.414;9.784;2022-07-29T01:33:07;17.60;99.90
6252;DHT22;3159;52.414;9.784;2022-07-29T01:35:39;17.70;99.90
6252;DHT22;3159;52.414;9.784;2022-07-29T01:38:10;17.70;99.90
6252;DHT22;3159;52.414;9.784;2022-07-29T01:40:43;17.80;99.90
6252;DHT22;3159;52.414;9.784;2022-07-29T01:43:14;17.60;99.90
6252;DHT22;3159;52.414;9.784;2022-07-29T01:45:47;17.60;99.90
6252;DHT22;3159;52.414;9.784;2022-07-29T01:48:18;17.50;99.90
6252;DHT22;3159;52.414;9.784;2022-07-29T01:50:49;17.40;99.90
6252;DHT22;3159;52.414;9.784;2022-07-29T01:53:23;17.40;99.90
6252;DHT22;3159;52.414;9.784;2022-07-29T01:55:53;17.40;99.90
6252;DHT22;3159;52.414;9.784;2022-07-29T01:58:21;17.60;99.90
6252;DHT22;3159;52.414;9.784;2022-07-29T02:00:51;17.40;99.90
6252;DHT22;3159;52.414;9.784;2022-07-29T02:03:19;17.40;99.90
6252;DHT22;3159;52.414;9.784;2022-07-29T02:05:48;17.50;99.90
6252;DHT22;3159;52.414;9.784;2022-07-29T02:08:16;17.60;99.90
6252;DHT22;3159;52.414;9.784;2022-07-29T02:10:46;17.40;99.90
6252;DHT22;3159;52.414;9.784;2022-07-29T02:13:15;17.50;99.90
6252;DHT22;3159;52.414;9.784;2022-07-29T02:15:42;17.40;99.90
6252;DHT22;3159;52.414;9.784;2022-07-29T02:18:15;17.40;99.90
6252;DHT22;3159;52.414;9.784;2022-07-29T02:20:45;17.40;99.90
6252;DHT22;3159;52.414;9.784;2022-07-29T02:23:15;17.30;99.90
6252;DHT22;3159;52.414;9.784;2022-07-29T02:25:44;17.30;99.90
6252;DHT22;3159;52.414;9.784;2022-07-29T02:28:15;17.30;99.90
6252;DHT22;3159;52.414;9.784;2022-07-29T02:30:43;17.20;99.90
6252;DHT22;3159;52.414;9.784;2022-07-29T02:33:15;17.30;99.90
6252;DHT22;3159;52.414;9.784;2022-07-29T02:35:44;17.30;99.90
6252;DHT22;3159;52.414;9.784;2022-07-29T02:38:13;17.10;99.90
6252;DHT22;3159;52.414;9.784;2022-07-29T02:41:00;17.10;99.90
6252;DHT22;3159;52.414;9.784;2022-07-29T02:43:30;17.00;99.90
6252;DHT22;3159;52.414;9.784;2022-07-29T02:46:00;17.10;99.90
6252;DHT22;3159;52.414;9.784;2022-07-29T02:48:36;17.20;99.90
6252;DHT22;3159;52.414;9.784;2022-07-29T02:51:08;17.20;99.90
6252;DHT22;3159;52.414;9.784;2022-07-29T02:53:37;17.20;99.90
6252;DHT22;3159;52.414;9.784;2022-07-29T02:56:08;17.10;99.90
6252;DHT22;3159;52.414;9.784;2022-07-29T02:58:40;17.10;99.90
6252;DHT22;3159;52.414;9.784;2022-07-29T03:01:11;17.00;99.90
6252;DHT22;3159;52.414;9.784;2022-07-29T03:03:43;16.80;99.90
6252;DHT22;3159;52.414;9.784;2022-07-29T03:06:13;16.80;99.90
6252;DHT22;3159;52.414;9.784;2022-07-29T03:08:41;16.70;99.90
6252;DHT22;3159;52.414;9.784;2022-07-29T03:11:09;16.90;99.90
6252;DHT22;3159;52.414;9.784;2022-07-29T03:13:37;16.90;99.90
6252;DHT22;3159;52.414;9.784;2022-07-29T03:16:05;16.70;99.90
6252;DHT22;3159;52.414;9.784;2022-07-29T03:18:34;16.90;99.90
6252;DHT22;3159;52.414;9.784;2022-07-29T03:21:03;16.90;99.90
6252;DHT22;3159;52.414;9.784;2022-07-29T03:23:30;16.80;99.90
6252;DHT22;3159;52.414;9.784;2022-07-29T03:25:57;16.70;99.90
6252;DHT22;3159;52.414;9.784;2022-07-29T03:28:24;16.80;99.90
6252;DHT22;3159;52.414;9.784;2022-07-29T03:30:53;16.70;99.90
6252;DHT22;3159;52.414;9.784;2022-07-29T03:33:20;16.60;99.90
6252;DHT22;3159;52.414;9.784;2022-07-29T03:35:47;16.60;99.90
6252;DHT22;3159;52.414;9.784;2022-07-29T03:38:16;16.70;99.90
6252;DHT22;3159;52.414;9.784;2022-07-29T03:40:46;16.70;99.90
6252;DHT22;3159;52.414;9.784;2022-07-29T03:43:16;16.70;99.90
6252;DHT22;3159;52.414;9.784;2022-07-29T03:45:47;16.70;99.90
6252;DHT22;3159;52.414;9.784;2022-07-29T03:48:17;16.70;99.90
6252;DHT22;3159;52.414;9.784;2022-07-29T03:50:46;16.70;99.90
6252;DHT22;3159;52.414;9.784;2022-07-29T03:53:13;16.70;99.90
6252;DHT22;3159;52.414;9.784;2022-07-29T03:55:44;16.60;99.90
6252;DHT22;3159;52.414;9.784;2022-07-29T03:58:12;16.70;99.90
6252;DHT22;3159;52.414;9.784;2022-07-29T04:00:40;16.70;99.90
6252;DHT22;3159;52.414;9.784;2022-07-29T04:03:08;16.70;99.90
6252;DHT22;3159;52.414;9.784;2022-07-29T04:05:36;16.60;99.90
6252;DHT22;3159;52.414;9.784;2022-07-29T04:08:03;16.50;99.90
6252;DHT22;3159;52.414;9.784;2022-07-29T04:10:30;16.60;99.90
6252;DHT22;3159;52.414;9.784;2022-07-29T04:12:58;16.60;99.90
6252;DHT22;3159;52.414;9.784;2022-07-29T04:15:25;16.60;99.90
6252;DHT22;3159;52.414;9.784;2022-07-29T04:17:54;16.50;99.90
6252;DHT22;3159;52.414;9.784;2022-07-29T04:20:20;16.50;99.90
6252;DHT22;3159;52.414;9.784;2022-07-29T04:22:47;16.50;99.90
6252;DHT22;3159;52.414;9.784;2022-07-29T04:25:14;16.40;99.90
6252;DHT22;3159;52.414;9.784;2022-07-29T04:27:41;16.50;99.90
6252;DHT22;3159;52.414;9.784;2022-07-29T04:30:23;16.40;99.90
6252;DHT22;3159;52.414;9.784;2022-07-29T04:32:50;16.40;99.90
6252;DHT22;3159;52.414;9.784;2022-07-29T04:35:17;16.50;99.90
6252;DHT22;3159;52.414;9.784;2022-07-29T04:37:44;16.50;99.90
6252;DHT22;3159;52.414;9.784;2022-07-29T04:40:11;16.40;99.90
6252;DHT22;3159;52.414;9.784;2022-07-29T04:42:38;16.40;99.90
6252;DHT22;3159;52.414;9.784;2022-07-29T04:45:06;16.50;99.90
6252;DHT22;3159;52.414;9.784;2022-07-29T04:47:34;16.60;99.90
6252;DHT22;3159;52.414;9.784;2022-07-29T04:50:01;16.60;99.90
6252;DHT22;3159;52.414;9.784;2022-07-29T04:52:28;16.50;99.90
6252;DHT22;3159;52.414;9.784;2022-07-29T04:54:55;16.60;99.90
6252;DHT22;3159;52.414;9.784;2022-07-29T04:57:22;16.70;99.90
6252;DHT22;3159;52.414;9.784;2022-07-29T04:59:49;16.80;99.90
6252;DHT22;3159;52.414;9.784;2022-07-29T05:02:16;16.90;99.90
6252;DHT22;3159;52.414;9.784;2022-07-29T05:04:44;16.80;99.90
6252;DHT22;3159;52.414;9.784;2022-07-29T05:07:11;16.80;99.90
6252;DHT22;3159;52.414;9.784;2022-07-29T05:09:38;16.70;99.90
6252;DHT22;3159;52.414;9.784;2022-07-29T05:12:05;16.80;99.90
6252;DHT22;3159;52.414;9.784;2022-07-29T05:14:33;16.90;99.90
6252;DHT22;3159;52.414;9.784;2022-07-29T05:16:59;16.90;99.90
6252;DHT22;3159;52.414;9.784;2022-07-29T05:19:26;17.00;99.90
6252;DHT22;3159;52.414;9.784;2022-07-29T05:21:55;17.00;99.90
6252;DHT22;3159;52.414;9.784;2022-07-29T05:24:21;17.00;99.90
6252;DHT22;3159;52.414;9.784;2022-07-29T05:26:48;17.00;99.90
6252;DHT22;3159;52.414;9.784;2022-07-29T05:29:15;17.20;99.90
6252;DHT22;3159;52.414;9.784;2022-07-29T05:31:42;17.20;99.90
6252;DHT22;3159;52.414;9.784;2022-07-29T05:34:09;17.20;99.90
6252;DHT22;3159;52.414;9.784;2022-07-29T05:36:36;17.20;99.90
6252;DHT22;3159;52.414;9.784;2022-07-29T05:39:04;17.30;99.90
6252;DHT22;3159;52.414;9.784;2022-07-29T05:41:31;17.30;99.90
6252;DHT22;3159;52.414;9.784;2022-07-29T05:43:59;17.20;99.90
6252;DHT22;3159;52.414;9.784;2022-07-29T05:46:25;17.20;99.90
6252;DHT22;3159;52.414;9.784;2022-07-29T05:48:52;17.40;99.90
6252;DHT22;3159;52.414;9.784;2022-07-29T05:51:19;17.30;99.90
6252;DHT22;3159;52.414;9.784;2022-07-29T05:53:46;17.40;99.90
6252;DHT22;3159;52.414;9.784;2022-07-29T05:56:14;17.40;99.90
6252;DHT22;3159;52.414;9.784;2022-07-29T05:58:41;17.50;99.90
6252;DHT22;3159;52.414;9.784;2022-07-29T06:01:08;17.50;99.90
6252;DHT22;3159;52.414;9.784;2022-07-29T06:03:35;17.60;99.90
6252;DHT22;3159;52.414;9.784;2022-07-29T06:06:03;17.60;99.90
6252;DHT22;3159;52.414;9.784;2022-07-29T06:08:31;17.60;99.90
6252;DHT22;3159;52.414;9.784;2022-07-29T06:10:59;17.60;99.90
6252;DHT22;3159;52.414;9.784;2022-07-29T06:13:27;17.60;99.90
6252;DHT22;3159;52.414;9.784;2022-07-29T06:15:54;17.50;99.90
6252;DHT22;3159;52.414;9.784;2022-07-29T06:18:21;17.60;99.90
6252;DHT22;3159;52.414;9.784;2022-07-29T06:20:52;17.80;99.90
6252;DHT22;3159;52.414;9.784;2022-07-29T06:23:20;17.90;99.90
6252;DHT22;3159;52.414;9.784;2022-07-29T06:25:47;18.00;99.90
6252;DHT22;3159;52.414;9.784;2022-07-29T06:28:14;18.00;99.90
6252;DHT22;3159;52.414;9.784;2022-07-29T06:30:42;18.10;99.90
6252;DHT22;3159;52.414;9.784;2022-07-29T06:33:09;18.20;99.90
6252;DHT22;3159;52.414;9.784;2022-07-29T06:35:36;18.20;99.90
6252;DHT22;3159;52.414;9.784;2022-07-29T06:38:04;18.20;99.90
6252;DHT22;3159;52.414;9.784;2022-07-29T06:40:31;18.20;99.90
6252;DHT22;3159;52.414;9.784;2022-07-29T06:43:15;18.30;99.90
6252;DHT22;3159;52.414;9.784;2022-07-29T06:45:43;18.40;99.90
6252;DHT22;3159;52.414;9.784;2022-07-29T06:48:10;18.50;99.90
6252;DHT22;3159;52.414;9.784;2022-07-29T06:50:37;18.40;99.90
6252;DHT22;3159;52.414;9.784;2022-07-29T06:53:05;18.50;99.90
6252;DHT22;3159;52.414;9.784;2022-07-29T06:55:32;18.60;99.90
6252;DHT22;3159;52.414;9.784;2022-07-29T06:57:59;18.50;99.90
6252;DHT22;3159;52.414;9.784;2022-07-29T07:00:25;18.70;99.90
6252;DHT22;3159;52.414;9.784;2022-07-29T07:02:54;18.70;99.90
6252;DHT22;3159;52.414;9.784;2022-07-29T07:05:21;19.00;99.90
6252;DHT22;3159;52.414;9.784;2022-07-29T07:07:48;19.20;99.90
6252;DHT22;3159;52.414;9.784;2022-07-29T07:10:15;19.40;99.90
6252;DHT22;3159;52.414;9.784;2022-07-29T07:12:42;19.40;99.90
6252;DHT22;3159;52.414;9.784;2022-07-29T07:15:09;19.40;99.90
6252;DHT22;3159;52.414;9.784;2022-07-29T07:17:36;19.60;99.90
6252;DHT22;3159;52.414;9.784;2022-07-29T07:20:06;19.70;99.90
6252;DHT22;3159;52.414;9.784;2022-07-29T07:22:33;19.70;99.90
6252;DHT22;3159;52.414;9.784;2022-07-29T07:25:00;19.90;99.90
6252;DHT22;3159;52.414;9.784;2022-07-29T07:27:27;20.00;99.90
6252;DHT22;3159;52.414;9.784;2022-07-29T07:29:55;20.30;99.90
6252;DHT22;3159;52.414;9.784;2022-07-29T07:32:22;20.40;99.90
6252;DHT22;3159;52.414;9.784;2022-07-29T07:34:49;20.50;99.90
6252;DHT22;3159;52.414;9.784;2022-07-29T07:37:17;20.50;99.90
6252;DHT22;3159;52.414;9.784;2022-07-29T07:39:46;20.50;99.90
6252;DHT22;3159;52.414;9.784;2022-07-29T07:42:13;20.40;99.90
6252;DHT22;3159;52.414;9.784;2022-07-29T07:44:39;20.30;99.90
6252;DHT22;3159;52.414;9.784;2022-07-29T07:47:06;20.50;99.90
6252;DHT22;3159;52.414;9.784;2022-07-29T07:49:33;20.40;99.90
6252;DHT22;3159;52.414;9.784;2022-07-29T07:52:00;20.60;99.90
6252;DHT22;3159;52.414;9.784;2022-07-29T07:54:28;20.60;99.90
6252;DHT22;3159;52.414;9.784;2022-07-29T07:56:55;20.50;99.90
6252;DHT22;3159;52.414;9.784;2022-07-29T07:59:22;20.30;99.90
6252;DHT22;3159;52.414;9.784;2022-07-29T08:01:49;20.40;99.90
6252;DHT22;3159;52.414;9.784;2022-07-29T08:04:16;20.40;99.90
6252;DHT22;3159;52.414;9.784;2022-07-29T08:06:43;20.50;99.90
6252;DHT22;3159;52.414;9.784;2022-07-29T08:09:10;20.60;99.90
6252;DHT22;3159;52.414;9.784;2022-07-29T08:11:38;20.70;99.90
6252;DHT22;3159;52.414;9.784;2022-07-29T08:14:05;20.70;99.90
6252;DHT22;3159;52.414;9.784;2022-07-29T08:16:32;20.60;99.90
6252;DHT22;3159;52.414;9.784;2022-07-29T08:18:59;20.60;99.90
6252;DHT22;3159;52.414;9.784;2022-07-29T08:21:25;20.40;99.90
6252;DHT22;3159;52.414;9.784;2022-07-29T08:23:52;20.40;99.90
6252;DHT22;3159;52.414;9.784;2022-07-29T08:26:41;20.40;99.90
6252;DHT22;3159;52.414;9.784;2022-07-29T08:29:08;20.50;99.90
6252;DHT22;3159;52.414;9.784;2022-07-29T08:31:36;20.50;99.90
6252;DHT22;3159;52.414;9.784;2022-07-29T08:34:03;20.60;99.90
6252;DHT22;3159;52.414;9.784;2022-07-29T08:36:30;20.50;99.90
6252;DHT22;3159;52.414;9.784;2022-07-29T08:38:57;20.60;99.90
6252;DHT22;3159;52.414;9.784;2022-07-29T08:41:25;20.60;99.90
6252;DHT22;3159;52.414;9.784;2022-07-29T08:43:53;20.50;99.90
6252;DHT22;3159;52.414;9.784;2022-07-29T08:46:20;20.60;99.90
6252;DHT22;3159;52.414;9.784;2022-07-29T08:48:47;20.50;99.90
6252;DHT22;3159;52.414;9.784;2022-07-29T08:51:17;20.70;99.90
6252;DHT22;3159;52.414;9.784;2022-07-29T08:53:45;20.70;99.90
6252;DHT22;3159;52.414;9.784;2022-07-29T08:56:14;20.80;99.90
6252;DHT22;3159;52.414;9.784;2022-07-29T08:58:42;20.90;99.90
6252;DHT22;3159;52.414;9.784;2022-07-29T09:01:12;20.80;99.90
6252;DHT22;3159;52.414;9.784;2022-07-29T09:03:40;20.90;99.90
6252;DHT22;3159;52.414;9.784;2022-07-29T09:06:07;20.80;99.90
6252;DHT22;3159;52.414;9.784;2022-07-29T09:08:35;20.90;99.90
6252;DHT22;3159;52.414;9.784;2022-07-29T09:11:02;20.90;99.90
6252;DHT22;3159;52.414;9.784;2022-07-29T09:13:29;20.90;99.90
6252;DHT22;3159;52.414;9.784;2022-07-29T09:15:56;21.00;99.90
6252;DHT22;3159;52.414;9.784;2022-07-29T09:18:38;21.00;99.90
6252;DHT22;3159;52.414;9.784;2022-07-29T09:21:06;21.10;99.90
6252;DHT22;3159;52.414;9.784;2022-07-29T09:24:01;21.10;99.90
6252;DHT22;3159;52.414;9.784;2022-07-29T09:26:29;21.30;99.90
6252;DHT22;3159;52.414;9.784;2022-07-29T09:28:56;21.20;99.90
6252;DHT22;3159;52.414;9.784;2022-07-29T09:31:35;21.40;99.90
6252;DHT22;3159;52.414;9.784;2022-07-29T09:34:03;21.50;99.90
6252;DHT22;3159;52.414;9.784;2022-07-29T09:36:30;21.40;99.90
6252;DHT22;3159;52.414;9.784;2022-07-29T09:38:57;21.30;99.90
6252;DHT22;3159;52.414;9.784;2022-07-29T09:41:25;21.30;99.90
6252;DHT22;3159;52.414;9.784;2022-07-29T09:43:56;21.40;99.90
6252;DHT22;3159;52.414;9.784;2022-07-29T09:46:24;21.50;99.90
6252;DHT22;3159;52.414;9.784;2022-07-29T09:49:08;21.50;99.90
6252;DHT22;3159;52.414;9.784;2022-07-29T09:51:35;21.60;99.90
6252;DHT22;3159;52.414;9.784;2022-07-29T09:54:21;21.60;99.90
6252;DHT22;3159;52.414;9.784;2022-07-29T09:56:48;21.70;99.90
6252;DHT22;3159;52.414;9.784;2022-07-29T09:59:15;21.70;99.90
6252;DHT22;3159;52.414;9.784;2022-07-29T10:01:42;21.70;99.90
6252;DHT22;3159;52.414;9.784;2022-07-29T10:04:10;21.70;99.90
6252;DHT22;3159;52.414;9.784;2022-07-29T10:06:55;21.70;99.90
6252;DHT22;3159;52.414;9.784;2022-07-29T10:09:23;21.70;99.90
6252;DHT22;3159;52.414;9.784;2022-07-29T10:12:06;21.60;99.90
6252;DHT22;3159;52.414;9.784;2022-07-29T10:14:36;21.60;99.90
6252;DHT22;3159;52.414;9.784;2022-07-29T10:17:04;21.80;99.90
6252;DHT22;3159;52.414;9.784;2022-07-29T10:19:33;21.90;99.90
6252;DHT22;3159;52.414;9.784;2022-07-29T10:22:02;21.90;99.90
6252;DHT22;3159;52.414;9.784;2022-07-29T10:24:31;22.00;99.90
6252;DHT22;3159;52.414;9.784;2022-07-29T10:27:00;22.20;99.90
6252;DHT22;3159;52.414;9.784;2022-07-29T10:29:27;22.30;99.90
6252;DHT22;3159;52.414;9.784;2022-07-29T10:32:14;22.50;99.90
6252;DHT22;3159;52.414;9.784;2022-07-29T10:35:12;22.70;99.90
6252;DHT22;3159;52.414;9.784;2022-07-29T10:38:04;22.40;99.90
6252;DHT22;3159;52.414;9.784;2022-07-29T10:40:41;22.50;99.90
6252;DHT22;3159;52.414;9.784;2022-07-29T10:43:30;22.50;99.90
6252;DHT22;3159;52.414;9.784;2022-07-29T10:46:02;22.50;99.90
6252;DHT22;3159;52.414;9.784;2022-07-29T10:48:29;22.40;99.90
6252;DHT22;3159;52.414;9.784;2022-07-29T10:50:59;22.50;99.90
6252;DHT22;3159;52.414;9.784;2022-07-29T10:53:46;22.50;99.90
6252;DHT22;3159;52.414;9.784;2022-07-29T10:56:24;22.50;99.90
6252;DHT22;3159;52.414;9.784;2022-07-29T10:59:23;22.60;99.90
6252;DHT22;3159;52.414;9.784;2022-07-29T11:01:53;22.60;99.90
6252;DHT22;3159;52.414;9.784;2022-07-29T11:07:26;22.70;99.90
6252;DHT22;3159;52.414;9.784;2022-07-29T11:10:24;22.80;99.90
6252;DHT22;3159;52.414;9.784;2022-07-29T11:12:51;22.70;99.90
6252;DHT22;3159;52.414;9.784;2022-07-29T11:15:20;22.80;99.90
6252;DHT22;3159;52.414;9.784;2022-07-29T11:18:07;22.80;99.90
6252;DHT22;3159;52.414;9.784;2022-07-29T11:20:36;22.80;99.90
6252;DHT22;3159;52.414;9.784;2022-07-29T11:23:25;22.80;99.90
6252;DHT22;3159;52.414;9.784;2022-07-29T11:26:14;22.70;99.90
6252;DHT22;3159;52.414;9.784;2022-07-29T11:28:54;22.60;99.90
6252;DHT22;3159;52.414;9.784;2022-07-29T11:31:37;22.60;99.90
6252;DHT22;3159;52.414;9.784;2022-07-29T11:34:20;22.80;99.90
6252;DHT22;3159;52.414;9.784;2022-07-29T11:37:22;22.70;99.90
6252;DHT22;3159;52.414;9.784;2022-07-29T11:40:13;22.70;99.90
6252;DHT22;3159;52.414;9.784;2022-07-29T11:42:42;22.80;99.90
6252;DHT22;3159;52.414;9.784;2022-07-29T11:45:12;22.80;99.90
6252;DHT22;3159;52.414;9.784;2022-07-29T11:47:42;22.80;99.90
6252;DHT22;3159;52.414;9.784;2022-07-29T11:50:14;22.90;99.90
6252;DHT22;3159;52.414;9.784;2022-07-29T11:52:43;22.90;99.90
6252;DHT22;3159;52.414;9.784;2022-07-29T11:55:13;23.00;99.90
6252;DHT22;3159;52.414;9.784;2022-07-29T11:57:47;23.00;99.90
6252;DHT22;3159;52.414;9.784;2022-07-29T12:00:26;23.00;99.90
6252;DHT22;3159;52.414;9.784;2022-07-29T12:02:54;23.20;99.90
6252;DHT22;3159;52.414;9.784;2022-07-29T12:05:31;23.30;99.90
6252;DHT22;3159;52.414;9.784;2022-07-29T12:08:05;23.30;99.90
6252;DHT22;3159;52.414;9.784;2022-07-29T12:10:34;23.30;99.90
6252;DHT22;3159;52.414;9.784;2022-07-29T12:13:01;23.30;99.90
6252;DHT22;3159;52.414;9.784;2022-07-29T12:15:29;23.40;99.90
6252;DHT22;3159;52.414;9.784;2022-07-29T12:17:56;23.30;99.90
6252;DHT22;3159;52.414;9.784;2022-07-29T12:20:24;23.50;99.90
6252;DHT22;3159;52.414;9.784;2022-07-29T12:22:51;23.60;99.90
6252;DHT22;3159;52.414;9.784;2022-07-29T12:25:20;23.60;99.90
6252;DHT22;3159;52.414;9.784;2022-07-29T12:27:57;23.60;99.90
6252;DHT22;3159;52.414;9.784;2022-07-29T12:30:35;23.70;99.90
6252;DHT22;3159;52.414;9.784;2022-07-29T12:33:13;23.90;99.90
6252;DHT22;3159;52.414;9.784;2022-07-29T12:35:42;23.80;99.90
6252;DHT22;3159;52.414;9.784;2022-07-29T12:38:10;24.00;99.90
6252;DHT22;3159;52.414;9.784;2022-07-29T12:40:38;24.00;99.90
6252;DHT22;3159;52.414;9.784;2022-07-29T12:43:10;24.10;99.90
6252;DHT22;3159;52.414;9.784;2022-07-29T12:45:38;24.20;99.90
6252;DHT22;3159;52.414;9.784;2022-07-29T12:48:07;24.40;99.90
6252;DHT22;3159;52.414;9.784;2022-07-29T12:50:35;24.50;99.90
6252;DHT22;3159;52.414;9.784;2022-07-29T12:53:09;24.40;99.90
6252;DHT22;3159;52.414;9.784;2022-07-29T12:55:41;24.40;99.90
6252;DHT22;3159;52.414;9.784;2022-07-29T12:58:10;24.30;99.90
6252;DHT22;3159;52.414;9.784;2022-07-29T13:00:37;24.50;99.90
6252;DHT22;3159;52.414;9.784;2022-07-29T13:03:04;24.60;99.90
6252;DHT22;3159;52.414;9.784;2022-07-29T13:05:42;24.50;99.90
6252;DHT22;3159;52.414;9.784;2022-07-29T13:08:13;24.50;99.90
6252;DHT22;3159;52.414;9.784;2022-07-29T13:10:41;24.50;99.90
6252;DHT22;3159;52.414;9.784;2022-07-29T13:13:11;24.50;99.90
6252;DHT22;3159;52.414;9.784;2022-07-29T13:15:40;24.70;99.90
6252;DHT22;3159;52.414;9.784;2022-07-29T13:18:28;24.70;99.90
6252;DHT22;3159;52.414;9.784;2022-07-29T13:20:55;24.80;99.90
6252;DHT22;3159;52.414;9.784;2022-07-29T13:23:22;24.90;99.90
6252;DHT22;3159;52.414;9.784;2022-07-29T13:25:49;24.90;99.90
6252;DHT22;3159;52.414;9.784;2022-07-29T13:28:18;24.90;99.90
6252;DHT22;3159;52.414;9.784;2022-07-29T13:30:45;25.00;99.90
6252;DHT22;3159;52.414;9.784;2022-07-29T13:33:12;24.90;99.90
6252;DHT22;3159;52.414;9.784;2022-07-29T13:35:40;24.90;99.90
6252;DHT22;3159;52.414;9.784;2022-07-29T13:38:07;24.80;99.90
6252;DHT22;3159;52.414;9.784;2022-07-29T13:40:34;25.00;99.90
6252;DHT22;3159;52.414;9.784;2022-07-29T13:43:01;24.90;99.90
6252;DHT22;3159;52.414;9.784;2022-07-29T13:45:29;24.80;99.90
6252;DHT22;3159;52.414;9.784;2022-07-29T13:47:56;24.80;99.90
6252;DHT22;3159;52.414;9.784;2022-07-29T13:50:23;24.70;99.90
6252;DHT22;3159;52.414;9.784;2022-07-29T13:52:53;24.90;99.90
6252;DHT22;3159;52.414;9.784;2022-07-29T13:55:20;25.00;99.90
6252;DHT22;3159;52.414;9.784;2022-07-29T13:57:47;25.00;99.90
6252;DHT22;3159;52.414;9.784;2022-07-29T14:00:14;25.10;99.90
6252;DHT22;3159;52.414;9.784;2022-07-29T14:02:43;25.20;99.90
6252;DHT22;3159;52.414;9.784;2022-07-29T14:05:10;25.30;99.90
6252;DHT22;3159;52.414;9.784;2022-07-29T14:07:37;25.40;99.90
6252;DHT22;3159;52.414;9.784;2022-07-29T14:10:06;25.30;99.90
6252;DHT22;3159;52.414;9.784;2022-07-29T14:12:33;25.40;99.90
6252;DHT22;3159;52.414;9.784;2022-07-29T14:15:00;25.50;99.90
6252;DHT22;3159;52.414;9.784;2022-07-29T14:17:27;25.60;99.90
6252;DHT22;3159;52.414;9.784;2022-07-29T14:19:55;25.60;99.90
6252;DHT22;3159;52.414;9.784;2022-07-29T14:22:22;25.90;99.90
6252;DHT22;3159;52.414;9.784;2022-07-29T14:24:50;26.10;99.90
6252;DHT22;3159;52.414;9.784;2022-07-29T14:27:17;26.20;99.90
6252;DHT22;3159;52.414;9.784;2022-07-29T14:29:44;26.40;99.90
6252;DHT22;3159;52.414;9.784;2022-07-29T14:32:11;26.30;99.90
6252;DHT22;3159;52.414;9.784;2022-07-29T14:34:40;26.30;99.90
6252;DHT22;3159;52.414;9.784;2022-07-29T14:37:08;26.20;99.90
6252;DHT22;3159;52.414;9.784;2022-07-29T14:39:35;26.40;99.90
6252;DHT22;3159;52.414;9.784;2022-07-29T14:42:03;26.40;99.90
6252;DHT22;3159;52.414;9.784;2022-07-29T14:44:29;26.50;99.90
6252;DHT22;3159;52.414;9.784;2022-07-29T14:46:57;26.70;99.90
6252;DHT22;3159;52.414;9.784;2022-07-29T14:49:25;26.50;99.90
6252;DHT22;3159;52.414;9.784;2022-07-29T14:51:51;26.50;99.90
6252;DHT22;3159;52.414;9.784;2022-07-29T14:54:20;26.50;99.90
6252;DHT22;3159;52.414;9.784;2022-07-29T14:56:46;26.40;99.90
6252;DHT22;3159;52.414;9.784;2022-07-29T14:59:14;26.30;99.90
6252;DHT22;3159;52.414;9.784;2022-07-29T15:01:41;26.50;99.90
6252;DHT22;3159;52.414;9.784;2022-07-29T15:04:08;26.60;99.90
6252;DHT22;3159;52.414;9.784;2022-07-29T15:06:35;26.70;99.90
6252;DHT22;3159;52.414;9.784;2022-07-29T15:09:03;26.80;99.90
6252;DHT22;3159;52.414;9.784;2022-07-29T15:11:31;27.10;99.90
6252;DHT22;3159;52.414;9.784;2022-07-29T15:13:58;27.30;99.90
6252;DHT22;3159;52.414;9.784;2022-07-29T15:16:25;27.50;99.90
6252;DHT22;3159;52.414;9.784;2022-07-29T15:18:52;27.50;99.90
6252;DHT22;3159;52.414;9.784;2022-07-29T15:21:19;27.50;99.90
6252;DHT22;3159;52.414;9.784;2022-07-29T15:23:45;27.70;99.90
6252;DHT22;3159;52.414;9.784;2022-07-29T15:26:12;27.70;99.90
6252;DHT22;3159;52.414;9.784;2022-07-29T15:28:40;27.70;99.90
6252;DHT22;3159;52.414;9.784;2022-07-29T15:31:07;27.70;99.90
6252;DHT22;3159;52.414;9.784;2022-07-29T15:33:34;27.80;99.90
6252;DHT22;3159;52.414;9.784;2022-07-29T15:36:01;27.80;99.90
6252;DHT22;3159;52.414;9.784;2022-07-29T15:38:30;27.70;99.90
6252;DHT22;3159;52.414;9.784;2022-07-29T15:40:57;27.50;99.90
6252;DHT22;3159;52.414;9.784;2022-07-29T15:43:23;27.10;99.90
6252;DHT22;3159;52.414;9.784;2022-07-29T15:45:52;26.90;99.90
6252;DHT22;3159;52.414;9.784;2022-07-29T15:48:37;27.10;99.90
6252;DHT22;3159;52.414;9.784;2022-07-29T15:51:05;27.10;99.90
6252;DHT22;3159;52.414;9.784;2022-07-29T15:53:32;27.00;99.90
6252;DHT22;3159;52.414;9.784;2022-07-29T15:55:59;27.10;99.90
6252;DHT22;3159;52.414;9.784;2022-07-29T15:58:26;27.10;99.90
6252;DHT22;3159;52.414;9.784;2022-07-29T16:00:54;26.90;99.60
6252;DHT22;3159;52.414;9.784;2022-07-29T16:03:21;26.90;99.90
6252;DHT22;3159;52.414;9.784;2022-07-29T16:05:49;26.90;99.90
6252;DHT22;3159;52.414;9.784;2022-07-29T16:08:16;26.70;99.90
6252;DHT22;3159;52.414;9.784;2022-07-29T16:10:43;26.50;99.90
6252;DHT22;3159;52.414;9.784;2022-07-29T16:13:10;26.60;99.90
6252;DHT22;3159;52.414;9.784;2022-07-29T16:15:37;26.50;99.90
6252;DHT22;3159;52.414;9.784;2022-07-29T16:18:05;26.50;99.90
6252;DHT22;3159;52.414;9.784;2022-07-29T16:20:33;26.50;99.90